Time;durP1;ratioP1;P1;durP2;ratioP2;P2;SDS_P1;SDS_P2;PMS_P1;PMS_P2;Temp;Humidity;BMP_temperature;BMP_pressure;BME280_temperature;BME280_humidity;BME280_pressure;Samples;Min_cycle;Max_cycle;Signal;HPM_P1;HPM_P2
2023/05/14 00:00:16;;;;;;;5.78;3.08;;;;;;;15.21;64.19;100704.22;4132145;28;20074;-64
2023/05/14 00:02:19;;;;;;;7.55;4.03;;;;;;;15.23;64.03;100704.22;4130607;28;20050;-64
2023/05/14 00:04:22;;;;;;;4.35;3.15;;;;;;;15.24;64.18;100695.50;4132099;28;20410;-64
2023/05/14 00:06:27;;;;;;;5.05;3.78;;;;;;;15.25;64.26;100692.88;4132079;28;20038;-64
2023/05/14 00:08:30;;;;;;;5.18;3.55;;;;;;;15.24;64.95;100692.88;4132152;28;20472;-64
2023/05/14 00:10:32;;;;;;;7.25;3.60;;;;;;;15.24;65.22;100682.41;4131945;28;20159;-64
2023/05/14 00:12:35;;;;;;;7.00;5.07;;;;;;;15.24;64.65;100685.00;4131725;28;20038;-64
2023/05/14 00:14:38;;;;;;;3.88;3.08;;;;;;;15.24;65.14;100685.00;4131901;28;20053;-64
2023/05/14 00:16:41;;;;;;;6.53;3.70;;;;;;;15.22;65.32;100677.16;4130585;28;20042;-64
2023/05/14 00:18:44;;;;;;;6.07;3.80;;;;;;;15.17;64.76;100681.50;4131912;28;20050;-63
2023/05/14 00:20:47;;;;;;;5.15;3.65;;;;;;;15.18;64.66;100686.75;4131888;28;20042;-64
2023/05/14 00:22:51;;;;;;;4.43;2.85;;;;;;;15.17;63.92;100685.03;4131566;28;20035;-64
2023/05/14 00:24:54;;;;;;;5.10;3.25;;;;;;;15.12;62.91;100688.53;4130718;28;20044;-64
2023/05/14 00:26:56;;;;;;;5.43;3.33;;;;;;;15.22;62.35;100682.41;4131794;28;20410;-64
2023/05/14 00:28:59;;;;;;;4.28;3.20;;;;;;;15.34;61.25;100686.75;4130373;28;20073;-64
2023/05/14 00:31:04;;;;;;;6.30;4.25;;;;;;;15.36;60.95;100679.75;4131551;28;20150;-64
2023/05/14 00:33:08;;;;;;;6.20;4.32;;;;;;;15.30;61.05;100679.75;4130305;28;20092;-64
2023/05/14 00:35:11;;;;;;;5.03;3.75;;;;;;;15.24;61.18;100678.00;4130406;28;20109;-64
2023/05/14 00:37:14;;;;;;;5.30;4.00;;;;;;;15.28;61.07;100674.53;4146743;28;20139;-64
2023/05/14 00:39:18;;;;;;;6.63;3.75;;;;;;;15.25;61.28;100671.06;4130475;28;20046;-64
2023/05/14 00:41:21;;;;;;;4.78;3.75;;;;;;;15.24;61.71;100670.16;4146729;28;20538;-64
2023/05/14 00:43:24;;;;;;;5.03;3.42;;;;;;;15.23;61.31;100673.69;4131382;28;20627;-64
2023/05/14 00:45:28;;;;;;;6.60;3.75;;;;;;;15.24;62.04;100669.31;4131650;28;20052;-64
2023/05/14 00:47:33;;;;;;;6.18;4.30;;;;;;;15.25;61.20;100665.81;4130404;28;20042;-64
2023/05/14 00:49:38;;;;;;;5.55;3.67;;;;;;;15.26;61.76;100671.06;4131521;28;20104;-64
2023/05/14 00:51:45;;;;;;;7.53;4.57;;;;;;;15.29;61.40;100664.94;4130382;28;20069;-64
2023/05/14 00:53:49;;;;;;;11.38;4.15;;;;;;;15.33;60.56;100667.53;4130037;28;20050;-64
2023/05/14 00:55:54;;;;;;;6.00;4.40;;;;;;;15.46;59.91;100672.75;4146650;28;20471;-64
2023/05/14 00:57:57;;;;;;;;;;;;;;;15.35;60.54;100662.31;4130696;28;20308;-64
2023/05/14 01:00:01;;;;;;;5.40;3.20;;;;;;;15.28;60.36;100666.66;4131780;28;19922;-64
2023/05/14 01:02:04;;;;;;;4.90;3.60;;;;;;;15.30;59.63;100664.94;4131421;28;20154;-64
2023/05/14 01:04:08;;;;;;;4.82;3.47;;;;;;;15.23;60.29;100662.31;4130112;28;20126;-64
2023/05/14 01:06:17;;;;;;;4.63;3.15;;;;;;;15.21;59.85;100664.94;4146516;28;20042;-64
2023/05/14 01:08:27;;;;;;;5.18;3.80;;;;;;;15.22;59.40;100660.59;4130282;28;20058;-64
2023/05/14 01:10:38;;;;;;;4.93;3.05;;;;;;;15.30;58.92;100664.94;4130139;28;20061;-64
2023/05/14 01:12:52;;;;;;;4.93;3.30;;;;;;;15.24;59.76;100670.16;4131165;28;20089;-64
2023/05/14 01:15:01;;;;;;;5.57;3.45;;;;;;;15.21;58.97;100664.94;4131380;28;20062;-64
2023/05/14 01:17:05;;;;;;;4.15;3.10;;;;;;;15.12;59.37;100657.97;4130047;28;20039;-64
2023/05/14 01:19:20;;;;;;;7.43;3.58;;;;;;;15.14;59.61;100648.38;4130252;28;20043;-64
2023/05/14 01:21:36;;;;;;;6.10;2.90;;;;;;;15.15;59.39;100659.72;4130039;28;20081;-64
2023/05/14 01:23:39;;;;;;;6.20;3.10;;;;;;;15.10;60.07;100651.88;4130053;28;20108;-64
2023/05/14 01:25:42;;;;;;;4.78;3.20;;;;;;;15.12;59.56;100644.00;4146250;28;20042;-64
2023/05/14 01:27:52;;;;;;;9.82;3.75;;;;;;;15.28;58.84;100644.84;4146276;28;20046;-64
2023/05/14 01:30:02;;;;;;;4.43;3.58;;;;;;;15.25;58.70;100642.25;4113728;28;20055;-64
2023/05/14 01:32:08;;;;;;;5.13;3.63;;;;;;;15.17;58.63;100648.38;4131163;28;20074;-64
2023/05/14 01:34:13;;;;;;;5.30;3.80;;;;;;;15.11;58.95;100637.91;4130070;28;20212;-64
2023/05/14 01:36:16;;;;;;;4.68;3.50;;;;;;;15.14;58.65;100643.13;4146159;28;20045;-64
2023/05/14 01:38:22;;;;;;;5.10;3.90;;;;;;;15.10;59.59;100644.00;4130007;28;20762;-64
2023/05/14 01:40:25;;;;;;;5.03;3.40;;;;;;;15.16;58.97;100648.38;4129956;28;20125;-64
2023/05/14 01:42:29;;;;;;;5.18;4.18;;;;;;;15.11;59.25;100660.59;4146625;28;20100;-64
2023/05/14 01:44:33;;;;;;;5.35;3.25;;;;;;;15.05;59.08;100653.59;4134290;28;20047;-64
2023/05/14 01:46:36;;;;;;;5.22;4.00;;;;;;;15.09;59.41;100649.25;4133135;28;20137;-64
2023/05/14 01:48:40;;;;;;;5.75;3.78;;;;;;;15.07;59.35;100656.22;4134260;28;20041;-64
2023/05/14 01:50:43;;;;;;;8.32;3.60;;;;;;;15.09;59.70;100654.50;4134218;28;20046;-64
2023/05/14 01:52:47;;;;;;;4.97;3.20;;;;;;;15.04;59.69;100645.75;4132782;28;20595;-64
2023/05/14 01:54:51;;;;;;;7.47;3.92;;;;;;;15.01;60.10;100652.75;4149247;28;20049;-64
2023/05/14 01:56:54;;;;;;;5.55;3.90;;;;;;;15.04;59.94;100657.13;4134206;28;20046;-64
2023/05/14 01:58:57;;;;;;;6.97;4.22;;;;;;;15.05;60.26;100652.75;4132768;28;20049;-65
2023/05/14 02:01:00;;;;;;;6.55;3.80;;;;;;;14.96;60.14;100646.63;4132879;28;20049;-64
2023/05/14 02:03:03;;;;;;;5.72;3.78;;;;;;;15.00;60.18;100656.22;4132647;28;20125;-64
2023/05/14 02:05:07;;;;;;;7.28;5.13;;;;;;;15.10;60.07;100661.44;4132760;28;20551;-64
2023/05/14 02:07:09;;;;;;;7.65;4.85;;;;;;;15.05;60.84;100660.59;4133991;28;20484;-64
2023/05/14 02:09:12;;;;;;;6.15;4.50;;;;;;;14.96;60.88;100651.88;4132730;28;20046;-64
2023/05/14 02:11:17;;;;;;;6.65;4.90;;;;;;;14.98;60.80;100657.09;4148911;28;20038;-64
2023/05/14 02:13:20;;;;;;;5.35;3.78;;;;;;;14.85;61.14;100651.03;4132404;28;20125;-64
2023/05/14 02:15:23;;;;;;;7.68;4.40;;;;;;;14.84;61.44;100657.13;4149176;28;20057;-64
2023/05/14 02:17:26;;;;;;;5.30;4.15;;;;;;;14.86;61.44;100652.75;4132768;28;20117;-64
2023/05/14 02:19:29;;;;;;;5.65;3.90;;;;;;;14.80;61.40;100652.75;4132566;28;20038;-64
2023/05/14 02:21:32;;;;;;;7.55;5.40;;;;;;;14.79;61.62;100649.28;4132600;28;20049;-64
2023/05/14 02:23:35;;;;;;;5.93;4.32;;;;;;;14.72;61.70;100651.88;4133466;28;20105;-64
2023/05/14 02:25:44;;;;;;;6.63;4.90;;;;;;;14.70;62.58;100648.38;4132562;28;20586;-65
2023/05/14 02:27:48;;;;;;;6.60;4.45;;;;;;;14.68;61.96;100650.16;4148691;28;20038;-64
2023/05/14 02:29:51;;;;;;;7.85;4.22;;;;;;;14.65;62.36;100646.63;4132288;28;20451;-65
2023/05/14 02:31:54;;;;;;;6.90;4.70;;;;;;;14.62;62.18;100649.25;4133532;28;20064;-64
2023/05/14 02:33:57;;;;;;;5.93;4.50;;;;;;;14.61;61.96;100646.59;4133351;28;20108;-64
2023/05/14 02:35:59;;;;;;;6.68;4.72;;;;;;;14.59;62.57;100643.13;4132372;28;20065;-65
2023/05/14 02:38:03;;;;;;;5.78;4.45;;;;;;;14.59;62.91;100641.38;4133391;28;20050;-64
2023/05/14 02:40:07;;;;;;;6.22;4.60;;;;;;;14.59;62.73;100644.00;4132276;28;20524;-64
2023/05/14 02:42:10;;;;;;;;;;;;;;;14.46;63.06;100650.09;4133691;28;20046;-64
2023/05/14 02:44:14;;;;;;;8.88;6.57;;;;;;;14.56;62.95;100643.09;4133356;28;19925;-64
2023/05/14 02:46:17;;;;;;;9.80;6.05;;;;;;;14.51;62.80;100645.72;4133402;28;20097;-65
2023/05/14 02:48:20;;;;;;;9.25;6.38;;;;;;;14.50;63.44;100649.22;4133396;28;20404;-64
2023/05/14 02:50:23;;;;;;;9.20;5.97;;;;;;;14.45;63.92;100645.72;4132072;28;20053;-65
2023/05/14 02:52:26;;;;;;;9.13;6.95;;;;;;;14.48;63.76;100650.94;4148025;28;20296;-65
2023/05/14 02:54:29;;;;;;;9.55;7.43;;;;;;;14.55;63.61;100654.47;4130771;28;20049;-65
2023/05/14 02:56:32;;;;;;;9.73;7.30;;;;;;;14.42;63.48;100649.19;4133101;28;20522;-64
2023/05/14 02:58:35;;;;;;;12.63;8.95;;;;;;;14.44;63.18;100654.44;4133105;28;20042;-64
2023/05/14 03:00:39;;;;;;;10.40;7.90;;;;;;;14.36;63.86;100646.59;4131860;28;20046;-65
2023/05/14 03:02:43;;;;;;;10.77;7.90;;;;;;;14.30;64.17;100647.44;4131698;28;20105;-64
2023/05/14 03:04:47;;;;;;;11.57;7.97;;;;;;;14.25;64.67;100653.53;4131790;28;20046;-64
2023/05/14 03:06:50;;;;;;;11.25;8.82;;;;;;;14.20;64.72;100648.28;4131904;28;20046;-64
2023/05/14 03:08:52;;;;;;;11.52;8.55;;;;;;;14.18;64.68;100642.19;4131844;28;20054;-64
2023/05/14 03:10:56;;;;;;;14.07;8.65;;;;;;;14.12;64.82;100642.19;4131850;28;20070;-64
2023/05/14 03:12:58;;;;;;;9.85;8.18;;;;;;;14.05;65.54;100649.13;4131387;28;20508;-64
2023/05/14 03:15:01;;;;;;;10.98;7.57;;;;;;;14.04;65.08;100655.22;4147938;28;20048;-64
2023/05/14 03:17:06;;;;;;;11.32;8.82;;;;;;;14.04;65.17;100646.50;4132783;28;20045;-64
2023/05/14 03:19:09;;;;;;;10.50;8.95;;;;;;;14.05;65.47;100650.88;4131653;28;20100;-64
2023/05/14 03:21:12;;;;;;;14.90;9.27;;;;;;;14.02;65.72;100650.84;4131559;28;20077;-65
2023/05/14 03:23:15;;;;;;;12.18;9.70;;;;;;;13.97;65.69;100650.84;4131372;28;20564;-64
2023/05/14 03:25:18;;;;;;;16.92;10.38;;;;;;;13.90;66.13;100651.69;4131610;28;20042;-64
2023/05/14 03:27:21;;;;;;;12.40;10.55;;;;;;;13.94;65.81;100650.81;4131492;28;20045;-64
2023/05/14 03:29:24;;;;;;;13.63;9.82;;;;;;;13.89;66.18;100645.59;4131474;28;20341;-64
2023/05/14 03:31:26;;;;;;;13.07;9.60;;;;;;;13.85;66.21;100640.34;4131665;28;20050;-65
2023/05/14 03:33:32;;;;;;;10.30;9.23;;;;;;;13.80;66.55;100635.13;4132577;28;20039;-65
2023/05/14 03:35:35;;;;;;;15.52;10.73;;;;;;;13.73;66.47;100643.78;4132793;28;20497;-65
2023/05/14 03:37:38;;;;;;;11.82;9.13;;;;;;;13.69;66.87;100647.25;4147632;28;20038;-65
2023/05/14 03:39:41;;;;;;;16.50;9.68;;;;;;;13.62;66.53;100648.94;4132639;28;20065;-64
2023/05/14 03:41:44;;;;;;;11.48;9.20;;;;;;;13.61;66.80;100640.25;4131274;28;20050;-64
2023/05/14 03:43:46;;;;;;;13.55;10.30;;;;;;;13.62;66.98;100635.88;4131139;28;20096;-64
2023/05/14 03:45:51;;;;;;;13.55;9.93;;;;;;;13.63;66.63;100647.22;4131316;28;20061;-64
2023/05/14 03:47:54;;;;;;;;;;;;;;;13.48;67.24;100643.69;4148064;28;20478;-64
2023/05/14 03:49:58;;;;;;;13.15;9.55;;;;;;;13.45;67.17;100641.06;4147547;28;20392;-64
2023/05/14 03:52:01;;;;;;;14.60;10.38;;;;;;;13.43;67.58;100646.28;4115141;28;20125;-64
2023/05/14 03:54:05;;;;;;;10.52;9.25;;;;;;;13.42;67.81;100643.66;4131221;28;20070;-64
2023/05/14 03:56:07;;;;;;;13.80;9.55;;;;;;;13.46;67.83;100645.38;4131237;28;20503;-64
2023/05/14 03:58:12;;;;;;;10.05;9.02;;;;;;;13.46;67.52;100647.13;4131111;28;20034;-64
2023/05/14 04:00:16;;;;;;;9.77;8.35;;;;;;;13.44;67.73;100636.69;4132355;28;20038;-64
2023/05/14 04:02:19;;;;;;;9.77;8.48;;;;;;;13.43;68.11;100648.00;4130820;28;20492;-65
2023/05/14 04:04:22;;;;;;;13.30;10.07;;;;;;;13.47;67.98;100644.53;4131093;28;20064;-64
2023/05/14 04:06:26;;;;;;;13.25;11.43;;;;;;;13.44;67.83;100650.59;4131903;28;20497;-65
2023/05/14 04:08:29;;;;;;;;;;;;;;;13.36;68.11;100654.03;4131450;28;20094;-64
2023/05/14 04:10:32;;;;;;;17.02;10.90;;;;;;;13.43;67.73;100642.75;4130850;28;20000;-64
2023/05/14 04:12:35;;;;;;;10.93;8.90;;;;;;;13.37;68.00;100647.97;4130730;28;20085;-64
2023/05/14 04:14:38;;;;;;;12.73;10.55;;;;;;;13.42;68.20;100648.88;4131018;28;20042;-64
2023/05/14 04:16:41;;;;;;;15.73;11.20;;;;;;;13.54;67.37;100642.84;4130925;28;20046;-64
2023/05/14 04:18:44;;;;;;;15.52;11.07;;;;;;;13.49;67.52;100645.44;4131938;28;20046;-63
2023/05/14 04:20:47;;;;;;;13.32;10.90;;;;;;;13.44;67.77;100636.69;4114687;28;20137;-64
2023/05/14 04:22:51;;;;;;;15.52;11.15;;;;;;;13.38;67.62;100641.88;4130591;28;20049;-64
2023/05/14 04:24:54;;;;;;;12.13;10.93;;;;;;;13.40;68.00;100645.38;4146996;28;20049;-64
2023/05/14 04:26:57;;;;;;;12.73;10.32;;;;;;;13.35;67.68;100641.88;4131954;28;20042;-64
2023/05/14 04:29:01;;;;;;;14.73;11.00;;;;;;;13.31;67.98;100651.38;4131655;28;20092;-64
2023/05/14 04:31:05;;;;;;;14.07;10.98;;;;;;;13.26;68.14;100642.66;4131828;28;20488;-64
2023/05/14 04:33:07;;;;;;;12.48;10.95;;;;;;;13.18;68.59;100645.19;4131578;28;20096;-64
2023/05/14 04:35:11;;;;;;;15.75;11.20;;;;;;;13.23;68.71;100640.03;4131716;28;20408;-64
2023/05/14 04:37:14;;;;;;;15.98;10.98;;;;;;;13.26;68.51;100642.66;4131676;28;20078;-64
2023/05/14 04:39:18;;;;;;;13.70;10.88;;;;;;;13.30;67.67;100646.16;4131527;28;20122;-64
2023/05/14 04:41:21;;;;;;;13.30;10.27;;;;;;;13.13;68.56;100643.41;4131615;28;20038;-64
2023/05/14 04:43:24;;;;;;;19.58;11.35;;;;;;;13.17;68.91;100642.56;4131355;28;20100;-64
2023/05/14 04:45:27;;;;;;;10.90;9.60;;;;;;;13.18;68.90;100639.13;4131628;28;20117;-64
2023/05/14 04:47:29;;;;;;;11.88;10.43;;;;;;;13.21;68.79;100641.75;4131611;28;20044;-64
2023/05/14 04:49:33;;;;;;;13.32;9.38;;;;;;;13.23;68.61;100653.09;4131516;28;20485;-64
2023/05/14 04:51:36;;;;;;;12.15;10.23;;;;;;;13.26;68.51;100643.53;4131535;28;20038;-64
2023/05/14 04:53:38;;;;;;;15.45;10.32;;;;;;;13.43;68.19;100646.28;4131274;28;20038;-64
2023/05/14 04:55:43;;;;;;;12.77;9.10;;;;;;;13.50;68.30;100644.53;4132006;28;20061;-65
2023/05/14 04:57:45;;;;;;;11.05;9.70;;;;;;;13.45;67.81;100654.13;4131434;28;20038;-64
2023/05/14 04:59:48;;;;;;;11.55;8.93;;;;;;;13.41;68.06;100653.19;4131365;28;20046;-64
2023/05/14 05:01:51;;;;;;;11.73;9.68;;;;;;;13.44;68.17;100654.97;4131409;28;20047;-64
2023/05/14 05:03:54;;;;;;;12.32;10.10;;;;;;;13.44;67.90;100660.19;4131121;28;20042;-64
2023/05/14 05:05:57;;;;;;;11.93;10.70;;;;;;;13.50;68.15;100661.97;4131460;28;20038;-64
2023/05/14 05:08:00;;;;;;;11.65;9.75;;;;;;;13.49;68.01;100655.88;4146391;28;20496;-64
2023/05/14 05:10:03;;;;;;;11.93;10.13;;;;;;;13.50;67.93;100662.81;4131292;28;20558;-64
2023/05/14 05:12:17;;;;;;;11.82;10.60;;;;;;;13.50;68.36;100654.13;4131143;28;20042;-64
2023/05/14 05:14:20;;;;;;;14.45;10.07;;;;;;;13.52;67.90;100655.00;4131330;28;20515;-64
2023/05/14 05:16:23;;;;;;;11.93;9.10;;;;;;;13.51;68.11;100659.38;4131290;28;20038;-64
2023/05/14 05:18:26;;;;;;;10.70;9.07;;;;;;;13.54;67.63;100662.00;4132555;28;20043;-64
2023/05/14 05:20:29;;;;;;;15.13;9.45;;;;;;;13.53;68.46;100662.84;4133382;28;20531;-64
2023/05/14 05:22:31;;;;;;;14.55;10.05;;;;;;;13.69;68.26;100670.78;4134454;28;20044;-64
2023/05/14 05:24:34;;;;;;;12.50;10.48;;;;;;;13.72;67.20;100673.38;4134533;28;20056;-64
2023/05/14 05:26:37;;;;;;;13.52;9.82;;;;;;;13.73;67.32;100664.69;4133277;28;20049;-64
2023/05/14 05:28:41;;;;;;;13.85;9.10;;;;;;;13.69;67.52;100662.94;4134601;28;20034;-64
2023/05/14 05:30:44;;;;;;;12.60;9.18;;;;;;;13.72;67.05;100665.56;4171989;22;20495;-58
2023/05/14 05:32:47;;;;;;;12.35;10.02;;;;;;;13.76;67.29;100672.53;4166567;28;20045;-59
2023/05/14 05:34:51;;;;;;;10.98;9.77;;;;;;;13.85;66.88;100679.56;4167157;28;20042;-60
2023/05/14 05:36:54;;;;;;;11.98;10.32;;;;;;;13.79;67.61;100672.56;4167170;28;20080;-60
2023/05/14 05:38:57;;;;;;;14.77;11.43;;;;;;;13.82;67.25;100677.78;4167086;28;20041;-60
2023/05/14 05:40:59;;;;;;;14.07;10.95;;;;;;;13.78;66.88;100673.41;4167167;28;20049;-60
2023/05/14 05:43:02;;;;;;;15.40;10.98;;;;;;;13.75;67.38;100666.44;4149313;28;20042;-60
2023/05/14 05:45:08;;;;;;;17.92;12.35;;;;;;;13.81;67.01;100675.19;4167036;28;20351;-60
2023/05/14 05:47:10;;;;;;;13.10;10.98;;;;;;;13.82;66.74;100675.19;4149338;28;20457;-60
2023/05/14 05:49:13;;;;;;;14.85;10.38;;;;;;;13.78;66.66;100679.53;4166895;28;20141;-60
2023/05/14 05:51:16;;;;;;;14.77;11.38;;;;;;;13.73;66.57;100676.00;4166886;28;20455;-60
2023/05/14 05:53:19;;;;;;;16.30;11.80;;;;;;;13.68;67.31;100666.41;4166578;28;20107;-60
2023/05/14 05:55:22;;;;;;;13.13;11.00;;;;;;;13.52;67.85;100671.56;4149211;28;20050;-60
2023/05/14 05:57:26;;;;;;;15.07;10.23;;;;;;;13.59;67.76;100675.97;4166769;28;20508;-60
2023/05/14 05:59:28;;;;;;;11.05;9.95;;;;;;;13.52;67.48;100671.56;4166665;28;20046;-60
2023/05/14 06:01:33;;;;;;;13.18;10.40;;;;;;;13.54;68.04;100667.22;4166714;28;20434;-60
2023/05/14 06:03:36;;;;;;;15.07;10.68;;;;;;;13.55;68.25;100671.56;4166423;28;20076;-60
2023/05/14 06:05:38;;;;;;;13.40;11.27;;;;;;;13.67;67.87;100669.88;4166696;28;20498;-59
2023/05/14 06:07:41;;;;;;;15.07;10.32;;;;;;;13.72;66.86;100674.25;4149242;28;20045;-59
2023/05/14 06:09:44;;;;;;;11.68;9.77;;;;;;;13.75;67.35;100665.56;4166751;28;20045;-59
2023/05/14 06:11:47;;;;;;;10.57;8.38;;;;;;;13.76;67.68;100675.16;4149153;28;20048;-60
2023/05/14 06:13:50;;;;;;;15.77;10.70;;;;;;;13.92;67.70;100666.50;4166363;28;20041;-60
2023/05/14 06:15:52;;;;;;;11.98;9.75;;;;;;;13.96;66.77;100664.78;4148944;28;20042;-60
2023/05/14 06:17:57;;;;;;;12.32;10.63;;;;;;;14.04;66.38;100664.81;4166570;28;20091;-59
2023/05/14 06:20:00;;;;;;;14.48;11.07;;;;;;;14.11;66.60;100666.56;4166380;28;20396;-60
2023/05/14 06:22:02;;;;;;;12.32;9.70;;;;;;;14.11;66.23;100672.66;4166426;28;20076;-60
2023/05/14 06:24:06;;;;;;;12.50;9.90;;;;;;;14.12;66.53;100668.34;4166206;28;20407;-60
2023/05/14 06:26:09;;;;;;;13.75;9.57;;;;;;;14.12;66.41;100670.94;4166409;28;20522;-59
2023/05/14 06:28:12;;;;;;;14.55;10.50;;;;;;;14.27;66.20;100670.97;4148468;28;20042;-59
2023/05/14 06:30:15;;;;;;;11.95;9.32;;;;;;;14.20;66.54;100669.22;4166098;28;20092;-60
2023/05/14 06:32:18;;;;;;;12.70;10.02;;;;;;;14.25;65.05;100669.22;4166050;28;20037;-60
2023/05/14 06:34:22;;;;;;;12.02;8.98;;;;;;;14.23;65.81;100666.59;4166226;28;20038;-59
2023/05/14 06:36:25;;;;;;;14.13;10.90;;;;;;;14.29;65.82;100669.25;4148758;28;20500;-59
2023/05/14 06:38:28;;;;;;;13.45;9.25;;;;;;;14.36;65.15;100674.50;4166158;28;20084;-60
2023/05/14 06:40:31;;;;;;;15.35;9.10;;;;;;;14.24;65.62;100667.50;4148377;28;20092;-59
2023/05/14 06:42:33;;;;;;;11.48;9.77;;;;;;;14.28;65.30;100667.50;4166254;28;20065;-60
2023/05/14 06:44:36;;;;;;;10.60;9.50;;;;;;;14.35;64.86;100659.66;4148605;28;20034;-60
2023/05/14 06:46:39;;;;;;;14.45;10.13;;;;;;;14.35;65.55;100667.50;4166109;28;20049;-60
2023/05/14 06:48:42;;;;;;;15.55;10.13;;;;;;;14.50;64.99;100664.94;4148411;28;20052;-60
2023/05/14 06:50:48;;;;;;;10.32;8.32;;;;;;;14.51;64.19;100666.66;4165941;28;20076;-59
2023/05/14 06:52:51;;;;;;;9.00;8.07;;;;;;;14.55;63.61;100660.56;4148269;28;20048;-62
2023/05/14 06:54:54;;;;;;;9.68;6.80;;;;;;;14.56;63.97;100654.47;4165901;28;20049;-60
2023/05/14 06:56:57;;;;;;;9.77;7.15;;;;;;;14.68;64.25;100658.88;4148399;28;20124;-60
2023/05/14 06:59:00;;;;;;;9.57;8.55;;;;;;;14.86;63.76;100652.75;4148183;28;20052;-60
2023/05/14 07:01:02;;;;;;;11.40;6.95;;;;;;;14.91;64.06;100650.13;4148305;28;20049;-60
2023/05/14 07:03:05;;;;;;;9.68;7.50;;;;;;;15.07;63.54;100640.50;4165539;28;20041;-60
2023/05/14 07:05:09;;;;;;;10.40;7.20;;;;;;;15.14;63.59;100639.63;4165766;28;20041;-60
2023/05/14 07:07:17;;;;;;;12.60;7.85;;;;;;;15.26;63.17;100646.59;4148169;28;20042;-60
2023/05/14 07:09:20;;;;;;;9.93;7.22;;;;;;;15.51;61.56;100636.94;4148043;28;20057;-60
2023/05/14 07:11:23;;;;;;;9.82;6.68;;;;;;;15.45;61.91;100643.06;4148164;28;20499;-61
2023/05/14 07:13:27;;;;;;;8.10;6.80;;;;;;;15.59;62.09;100637.75;4131584;28;20065;-60
2023/05/14 07:15:30;;;;;;;9.00;5.68;;;;;;;15.94;60.63;100636.75;4165625;28;20095;-60
2023/05/14 07:17:33;;;;;;;8.68;5.30;;;;;;;16.09;59.54;100640.19;4165528;28;20037;-60
2023/05/14 07:19:36;;;;;;;9.93;7.05;;;;;;;16.22;58.81;100634.88;4165342;28;20442;-60
2023/05/14 07:21:39;;;;;;;9.00;6.68;;;;;;;16.27;57.92;100632.22;4165443;28;20045;-60
2023/05/14 07:23:43;;;;;;;8.23;5.93;;;;;;;16.27;58.82;100628.75;4165268;28;20144;-60
2023/05/14 07:25:46;;;;;;;7.72;6.15;;;;;;;16.37;58.17;100627.78;4165447;28;20046;-60
2023/05/14 07:27:49;;;;;;;11.23;6.50;;;;;;;16.42;58.11;100625.13;4165492;28;20038;-60
2023/05/14 07:29:51;;;;;;;9.38;6.60;;;;;;;16.55;56.88;100622.38;4165200;28;20487;-60
2023/05/14 07:31:54;;;;;;;7.53;5.65;;;;;;;16.59;56.93;100625.88;4165361;28;20072;-60
2023/05/14 07:33:57;;;;;;;7.70;6.05;;;;;;;16.55;57.11;100609.25;4165051;28;20064;-60
2023/05/14 07:36:00;;;;;;;10.05;6.32;;;;;;;16.61;56.04;100615.34;4147720;28;20534;-60
2023/05/14 07:38:04;;;;;;;9.23;5.57;;;;;;;16.62;55.80;100610.09;4147588;28;20148;-60
2023/05/14 07:40:09;;;;;;;7.80;6.35;;;;;;;16.78;55.25;100609.94;4164301;28;20404;-60
2023/05/14 07:42:12;;;;;;;9.13;6.10;;;;;;;16.70;56.10;100610.88;4147308;28;20050;-60
2023/05/14 07:44:29;;;;;;;8.73;5.32;;;;;;;16.62;57.16;100603.94;4165217;28;20483;-60
2023/05/14 07:46:32;;;;;;;9.45;6.53;;;;;;;16.83;56.68;100602.91;4165029;28;20041;-60
2023/05/14 07:48:35;;;;;;;9.07;6.72;;;;;;;17.08;54.83;100596.56;4165066;28;20040;-61
2023/05/14 07:50:38;;;;;;;10.25;6.38;;;;;;;16.98;55.47;100597.56;4147405;28;20564;-60
2023/05/14 07:52:41;;;;;;;9.98;6.68;;;;;;;16.99;55.98;100599.28;4165230;28;20061;-59
2023/05/14 07:54:44;;;;;;;7.20;5.72;;;;;;;16.92;56.68;100595.84;4147459;28;20034;-60
2023/05/14 07:56:48;;;;;;;10.25;7.20;;;;;;;17.03;56.47;100589.63;4164903;28;20041;-60
2023/05/14 07:58:51;;;;;;;12.40;6.97;;;;;;;17.30;55.35;100591.06;4164924;28;20052;-60
2023/05/14 08:00:55;;;;;;;8.93;6.03;;;;;;;17.07;56.26;100584.31;4164754;28;20073;-59
2023/05/14 08:03:03;;;;;;;10.63;6.30;;;;;;;17.09;56.36;100593.03;4163320;28;20045;-59
2023/05/14 08:05:07;;;;;;;9.57;6.10;;;;;;;17.19;55.60;100588.56;4130956;28;20042;-59
2023/05/14 08:07:11;;;;;;;10.52;6.43;;;;;;;17.03;55.92;100585.22;4164818;28;20033;-60
2023/05/14 08:09:14;;;;;;;9.68;6.35;;;;;;;17.21;55.58;100583.28;4164670;28;20095;-60
2023/05/14 08:11:16;;;;;;;7.72;5.40;;;;;;;17.43;55.04;100584.81;4147254;28;20121;-59
2023/05/14 08:13:21;;;;;;;8.23;5.60;;;;;;;17.37;55.92;100584.00;4164397;28;20145;-59
2023/05/14 08:15:23;;;;;;;13.27;6.18;;;;;;;17.62;55.24;100581.91;4164645;28;20549;-60
2023/05/14 08:17:29;;;;;;;9.07;5.88;;;;;;;17.61;55.17;100588.09;4164684;28;20048;-60
2023/05/14 08:19:32;;;;;;;9.63;5.80;;;;;;;17.59;55.75;100584.59;4164557;28;20041;-60
2023/05/14 08:21:35;;;;;;;9.23;6.68;;;;;;;17.52;56.13;100585.56;4146905;28;20046;-59
2023/05/14 08:23:38;;;;;;;10.68;6.18;;;;;;;17.63;55.10;100581.91;4164251;28;20064;-59
2023/05/14 08:25:41;;;;;;;11.18;6.72;;;;;;;17.78;55.20;100580.84;4147044;28;20587;-59
2023/05/14 08:27:43;;;;;;;10.75;6.85;;;;;;;18.01;54.32;100579.66;4164448;28;20041;-60
2023/05/14 08:29:47;;;;;;;8.25;5.90;;;;;;;17.95;53.98;100570.09;4164252;28;20063;-60
2023/05/14 08:31:50;;;;;;;9.80;6.85;;;;;;;18.01;54.41;100570.91;4164382;28;20038;-60
2023/05/14 08:33:53;;;;;;;10.02;6.20;;;;;;;18.03;53.68;100569.97;4146516;28;20526;-60
2023/05/14 08:35:59;;;;;;;8.20;6.38;;;;;;;18.06;53.69;100563.81;4164441;28;20037;-60
2023/05/14 08:38:02;;;;;;;7.03;5.18;;;;;;;18.17;53.78;100567.16;4146860;28;20042;-59
2023/05/14 08:40:07;;;;;;;8.05;5.43;;;;;;;18.08;53.55;100560.28;4130320;28;20134;-60
2023/05/14 08:42:12;;;;;;;9.32;5.90;;;;;;;17.90;54.48;100568.41;4163991;28;20052;-60
2023/05/14 08:44:19;;;;;;;6.82;4.65;;;;;;;17.94;54.06;100562.22;4146843;28;20407;-59
2023/05/14 08:46:24;;;;;;;9.93;6.32;;;;;;;18.25;53.90;100573.19;4146739;28;20056;-60
2023/05/14 08:48:32;;;;;;;10.70;6.20;;;;;;;18.53;52.68;100561.31;4146648;28;20053;-60
2023/05/14 08:50:36;;;;;;;9.48;6.15;;;;;;;18.31;52.02;100562.53;4164090;28;20048;-60
2023/05/14 08:52:39;;;;;;;10.50;6.35;;;;;;;17.95;53.44;100574.50;4163773;28;20403;-60
2023/05/14 08:54:42;;;;;;;6.05;5.13;;;;;;;17.73;53.81;100564.25;4164109;28;20037;-59
2023/05/14 08:56:46;;;;;;;6.50;4.80;;;;;;;17.64;54.86;100572.28;4164111;28;20091;-59
2023/05/14 08:58:48;;;;;;;7.18;5.57;;;;;;;17.93;53.53;100564.00;4164124;28;20029;-60
2023/05/14 09:00:53;;;;;;;8.20;5.95;;;;;;;17.73;54.61;100566.88;4146444;28;20601;-61
2023/05/14 09:02:57;;;;;;;;;;;;;;;17.65;54.55;100562.59;4146746;28;20038;-60
2023/05/14 09:05:01;;;;;;;13.25;5.85;;;;;;;17.57;54.44;100566.22;4163938;28;19925;-59
2023/05/14 09:07:06;;;;;;;6.18;4.97;;;;;;;17.39;55.29;100564.69;4164005;28;20403;-60
2023/05/14 09:09:09;;;;;;;;;;;;;;;17.24;55.35;100559.59;4164441;28;20042;-61
2023/05/14 09:11:12;;;;;;;7.03;5.35;;;;;;;17.33;56.40;100556.00;4146382;28;20475;-60
2023/05/14 09:13:15;;;;;;;8.23;5.55;;;;;;;17.32;55.54;100551.63;4163652;28;20140;-60
2023/05/14 09:15:18;;;;;;;6.72;4.90;;;;;;;17.28;55.97;100558.69;4146446;28;20042;-60
2023/05/14 09:17:21;;;;;;;6.95;5.60;;;;;;;17.44;54.83;100562.00;4163899;28;20099;-60
2023/05/14 09:19:25;;;;;;;7.40;5.30;;;;;;;17.48;54.88;100558.44;4163861;28;20049;-60
2023/05/14 09:21:28;;;;;;;;;;;;;;;17.29;55.33;100555.19;4164237;28;20044;-60
2023/05/14 09:23:35;;;;;;;6.65;4.72;;;;;;;17.26;55.67;100558.72;4163664;28;20322;-60
2023/05/14 09:25:38;;;;;;;7.80;4.90;;;;;;;17.26;55.36;100555.22;4163880;28;20491;-60
2023/05/14 09:27:40;;;;;;;6.85;5.10;;;;;;;17.28;55.28;100554.28;4163849;28;20124;-60
2023/05/14 09:29:43;;;;;;;7.97;5.40;;;;;;;17.40;54.65;100558.53;4163649;28;20495;-60
2023/05/14 09:31:46;;;;;;;5.32;3.90;;;;;;;17.35;55.11;100547.22;4163739;28;20120;-60